sensor_id;sensor_type;location;lat;lon;timestamp;pressure;altitude;pressure_sealevel;temperature;humidity
44349;BME280;30068;50.986;4.564;2023-03-01T00:00:52;103095.06;;;16.67;nan
44349;BME280;30068;50.986;4.564;2023-03-01T00:03:17;103097.28;;;16.86;nan
44349;BME280;30068;50.986;4.564;2023-03-01T00:05:46;103099.91;;;16.75;nan
44349;BME280;30068;50.986;4.564;2023-03-01T00:08:11;103090.97;;;16.62;nan
44349;BME280;30068;50.986;4.564;2023-03-01T00:10:36;103096.03;;;16.66;nan
44349;BME280;30068;50.986;4.564;2023-03-01T00:13:02;103094.09;;;16.68;nan
44349;BME280;30068;50.986;4.564;2023-03-01T00:15:27;103096.66;;;16.57;nan
44349;BME280;30068;50.986;4.564;2023-03-01T00:17:52;103098.94;;;16.50;nan
44349;BME280;30068;50.986;4.564;2023-03-01T00:20:18;103102.72;;;16.61;nan
44349;BME280;30068;50.986;4.564;2023-03-01T00:22:43;103091.72;;;16.51;nan
44349;BME280;30068;50.986;4.564;2023-03-01T00:25:08;103089.78;;;16.40;nan
44349;BME280;30068;50.986;4.564;2023-03-01T00:27:34;103098.84;;;16.14;nan
44349;BME280;30068;50.986;4.564;2023-03-01T00:29:59;103090.22;;;16.09;nan
44349;BME280;30068;50.986;4.564;2023-03-01T00:32:24;103086.75;;;16.07;nan
44349;BME280;30068;50.986;4.564;2023-03-01T00:34:50;103088.34;;;15.97;nan
44349;BME280;30068;50.986;4.564;2023-03-01T00:37:20;103077.72;;;15.95;nan
44349;BME280;30068;50.986;4.564;2023-03-01T00:39:46;103082.66;;;15.89;nan
44349;BME280;30068;50.986;4.564;2023-03-01T00:42:11;103087.06;;;15.90;nan
44349;BME280;30068;50.986;4.564;2023-03-01T00:44:36;103092.56;;;15.88;nan
44349;BME280;30068;50.986;4.564;2023-03-01T00:47:02;103091.91;;;15.97;nan
44349;BME280;30068;50.986;4.564;2023-03-01T00:49:27;103090.84;;;15.87;nan
44349;BME280;30068;50.986;4.564;2023-03-01T00:51:52;103086.84;;;15.80;nan
44349;BME280;30068;50.986;4.564;2023-03-01T00:54:18;103088.75;;;15.78;nan
44349;BME280;30068;50.986;4.564;2023-03-01T00:56:43;103098.03;;;15.74;nan
44349;BME280;30068;50.986;4.564;2023-03-01T00:59:08;103088.84;;;15.76;nan
44349;BME280;30068;50.986;4.564;2023-03-01T01:01:33;103090.72;;;15.76;nan
44349;BME280;30068;50.986;4.564;2023-03-01T01:04:03;103090.41;;;15.80;nan
44349;BME280;30068;50.986;4.564;2023-03-01T01:06:30;103089.19;;;15.72;nan
44349;BME280;30068;50.986;4.564;2023-03-01T01:08:56;103087.00;;;15.64;nan
44349;BME280;30068;50.986;4.564;2023-03-01T01:11:22;103083.56;;;15.62;nan
44349;BME280;30068;50.986;4.564;2023-03-01T01:13:48;103083.25;;;15.67;nan
44349;BME280;30068;50.986;4.564;2023-03-01T01:16:14;103077.00;;;15.66;nan
44349;BME280;30068;50.986;4.564;2023-03-01T01:18:40;103081.34;;;15.69;nan
44349;BME280;30068;50.986;4.564;2023-03-01T01:21:12;103074.44;;;15.51;nan
44349;BME280;30068;50.986;4.564;2023-03-01T01:23:38;103071.66;;;15.52;nan
44349;BME280;30068;50.986;4.564;2023-03-01T01:26:05;103069.78;;;15.54;nan
44349;BME280;30068;50.986;4.564;2023-03-01T01:28:30;103070.63;;;15.55;nan
44349;BME280;30068;50.986;4.564;2023-03-01T01:30:55;103069.78;;;15.54;nan
44349;BME280;30068;50.986;4.564;2023-03-01T01:33:21;103064.97;;;15.72;nan
44349;BME280;30068;50.986;4.564;2023-03-01T01:35:46;103065.34;;;15.53;nan
44349;BME280;30068;50.986;4.564;2023-03-01T01:38:11;103063.75;;;15.36;nan
44349;BME280;30068;50.986;4.564;2023-03-01T01:40:42;103064.63;;;15.37;nan
44349;BME280;30068;50.986;4.564;2023-03-01T01:43:11;103054.50;;;15.55;nan
44349;BME280;30068;50.986;4.564;2023-03-01T01:45:38;103057.44;;;15.50;nan
44349;BME280;30068;50.986;4.564;2023-03-01T01:48:04;103051.28;;;15.62;nan
44349;BME280;30068;50.986;4.564;2023-03-01T01:50:31;103050.06;;;15.54;nan
44349;BME280;30068;50.986;4.564;2023-03-01T01:53:04;103035.69;;;15.40;nan
44349;BME280;30068;50.986;4.564;2023-03-01T01:55:30;103040.28;;;15.26;nan
44349;BME280;30068;50.986;4.564;2023-03-01T01:57:56;103037.59;;;15.26;nan
44349;BME280;30068;50.986;4.564;2023-03-01T02:00:25;103027.16;;;15.21;nan
44349;BME280;30068;50.986;4.564;2023-03-01T02:02:58;103024.56;;;15.20;nan
44349;BME280;30068;50.986;4.564;2023-03-01T02:05:26;103027.78;;;15.25;nan
44349;BME280;30068;50.986;4.564;2023-03-01T02:07:53;103026.38;;;15.19;nan
44349;BME280;30068;50.986;4.564;2023-03-01T02:10:19;103025.78;;;15.28;nan
44349;BME280;30068;50.986;4.564;2023-03-01T02:12:45;103018.22;;;15.21;nan
44349;BME280;30068;50.986;4.564;2023-03-01T02:15:10;103018.63;;;15.15;nan
44349;BME280;30068;50.986;4.564;2023-03-01T02:17:35;103013.13;;;15.16;nan
44349;BME280;30068;50.986;4.564;2023-03-01T02:20:16;103012.16;;;15.17;nan
44349;BME280;30068;50.986;4.564;2023-03-01T02:22:46;103011.94;;;15.08;nan
44349;BME280;30068;50.986;4.564;2023-03-01T02:27:52;102999.22;;;15.10;nan
44349;BME280;30068;50.986;4.564;2023-03-01T02:30:21;102997.81;;;15.04;nan
44349;BME280;30068;50.986;4.564;2023-03-01T02:32:47;102997.41;;;15.10;nan
44349;BME280;30068;50.986;4.564;2023-03-01T02:35:13;102985.75;;;14.97;nan
44349;BME280;30068;50.986;4.564;2023-03-01T02:37:39;102991.53;;;14.91;nan
44349;BME280;30068;50.986;4.564;2023-03-01T02:40:06;102986.78;;;14.94;nan
44349;BME280;30068;50.986;4.564;2023-03-01T02:42:37;102987.72;;;14.81;nan
44349;BME280;30068;50.986;4.564;2023-03-01T02:45:05;102983.28;;;14.94;nan
44349;BME280;30068;50.986;4.564;2023-03-01T02:47:30;102980.00;;;14.89;nan
44349;BME280;30068;50.986;4.564;2023-03-01T02:49:55;102983.56;;;14.89;nan
44349;BME280;30068;50.986;4.564;2023-03-01T02:52:23;102971.59;;;14.81;nan
44349;BME280;30068;50.986;4.564;2023-03-01T02:57:23;102982.31;;;14.81;nan
44349;BME280;30068;50.986;4.564;2023-03-01T02:59:49;102969.66;;;14.83;nan
44349;BME280;30068;50.986;4.564;2023-03-01T03:02:26;102970.22;;;14.88;nan
44349;BME280;30068;50.986;4.564;2023-03-01T03:07:31;102969.44;;;14.73;nan
44349;BME280;30068;50.986;4.564;2023-03-01T03:09:56;102981.22;;;14.71;nan
44349;BME280;30068;50.986;4.564;2023-03-01T03:12:21;102979.50;;;14.70;nan
44349;BME280;30068;50.986;4.564;2023-03-01T03:14:46;102979.78;;;14.79;nan
44349;BME280;30068;50.986;4.564;2023-03-01T03:17:12;102985.03;;;14.81;nan
44349;BME280;30068;50.986;4.564;2023-03-01T03:19:37;102980.06;;;14.75;nan
44349;BME280;30068;50.986;4.564;2023-03-01T03:22:02;102984.31;;;14.65;nan
44349;BME280;30068;50.986;4.564;2023-03-01T03:24:27;102982.59;;;14.63;nan
44349;BME280;30068;50.986;4.564;2023-03-01T03:26:53;102987.88;;;14.65;nan
44349;BME280;30068;50.986;4.564;2023-03-01T03:29:18;102984.22;;;14.66;nan
44349;BME280;30068;50.986;4.564;2023-03-01T03:31:44;102974.34;;;14.67;nan
44349;BME280;30068;50.986;4.564;2023-03-01T03:34:09;102967.47;;;14.75;nan
44349;BME280;30068;50.986;4.564;2023-03-01T03:36:42;102972.41;;;14.69;nan
44349;BME280;30068;50.986;4.564;2023-03-01T03:39:08;102980.06;;;14.75;nan
44349;BME280;30068;50.986;4.564;2023-03-01T03:41:34;102971.66;;;14.67;nan
44349;BME280;30068;50.986;4.564;2023-03-01T03:43:59;102971.66;;;14.67;nan
44349;BME280;30068;50.986;4.564;2023-03-01T03:46:24;102978.47;;;14.58;nan
44349;BME280;30068;50.986;4.564;2023-03-01T03:48:50;102980.53;;;14.67;nan
44349;BME280;30068;50.986;4.564;2023-03-01T03:51:16;102974.56;;;14.49;nan
44349;BME280;30068;50.986;4.564;2023-03-01T03:53:42;102971.44;;;14.70;nan
44349;BME280;30068;50.986;4.564;2023-03-01T03:56:07;102973.97;;;14.58;nan
44349;BME280;30068;50.986;4.564;2023-03-01T03:58:33;102969.56;;;14.57;nan
44349;BME280;30068;50.986;4.564;2023-03-01T04:00:58;102963.00;;;14.61;nan
44349;BME280;30068;50.986;4.564;2023-03-01T04:03:26;102963.22;;;14.58;nan
44349;BME280;30068;50.986;4.564;2023-03-01T04:05:51;102966.31;;;14.52;nan
44349;BME280;30068;50.986;4.564;2023-03-01T04:08:20;102967.66;;;14.59;nan
44349;BME280;30068;50.986;4.564;2023-03-01T04:10:46;102955.84;;;14.48;nan
44349;BME280;30068;50.986;4.564;2023-03-01T04:13:13;102951.16;;;14.51;nan
44349;BME280;30068;50.986;4.564;2023-03-01T04:15:39;102962.91;;;14.63;nan
44349;BME280;30068;50.986;4.564;2023-03-01T04:18:05;102960.13;;;14.65;nan
44349;BME280;30068;50.986;4.564;2023-03-01T04:20:32;102959.78;;;14.56;nan
44349;BME280;30068;50.986;4.564;2023-03-01T04:23:00;102956.13;;;14.57;nan
44349;BME280;30068;50.986;4.564;2023-03-01T04:26:17;102951.97;;;14.39;nan
44349;BME280;30068;50.986;4.564;2023-03-01T04:30:50;102960.91;;;14.67;nan
44349;BME280;30068;50.986;4.564;2023-03-01T04:33:15;102955.19;;;14.44;nan
44349;BME280;30068;50.986;4.564;2023-03-01T04:35:40;102958.16;;;14.40;nan
44349;BME280;30068;50.986;4.564;2023-03-01T04:38:06;102956.72;;;14.48;nan
44349;BME280;30068;50.986;4.564;2023-03-01T04:40:31;102959.22;;;14.51;nan
44349;BME280;30068;50.986;4.564;2023-03-01T04:42:57;102956.09;;;15.11;nan
44349;BME280;30068;50.986;4.564;2023-03-01T04:45:22;102947.19;;;14.84;nan
44349;BME280;30068;50.986;4.564;2023-03-01T04:47:47;102953.59;;;15.08;nan
44349;BME280;30068;50.986;4.564;2023-03-01T04:50:14;102954.41;;;15.35;nan
44349;BME280;30068;50.986;4.564;2023-03-01T04:52:40;102941.56;;;15.53;nan
44349;BME280;30068;50.986;4.564;2023-03-01T04:55:05;102944.75;;;15.20;nan
44349;BME280;30068;50.986;4.564;2023-03-01T04:57:31;102946.22;;;15.24;nan
44349;BME280;30068;50.986;4.564;2023-03-01T04:59:57;102948.16;;;15.22;nan
44349;BME280;30068;50.986;4.564;2023-03-01T05:02:22;102948.03;;;15.63;nan
44349;BME280;30068;50.986;4.564;2023-03-01T05:04:47;102934.03;;;15.71;nan
44349;BME280;30068;50.986;4.564;2023-03-01T05:07:12;102931.44;;;15.57;nan
44349;BME280;30068;50.986;4.564;2023-03-01T05:09:46;102931.41;;;15.44;nan
44349;BME280;30068;50.986;4.564;2023-03-01T05:12:12;102926.03;;;15.31;nan
44349;BME280;30068;50.986;4.564;2023-03-01T05:14:37;102923.59;;;15.79;nan
44349;BME280;30068;50.986;4.564;2023-03-01T05:17:03;102926.38;;;15.90;nan
44349;BME280;30068;50.986;4.564;2023-03-01T05:19:29;102926.06;;;15.82;nan
44349;BME280;30068;50.986;4.564;2023-03-01T05:21:55;102917.97;;;15.44;nan
44349;BME280;30068;50.986;4.564;2023-03-01T05:24:27;102917.19;;;15.29;nan
44349;BME280;30068;50.986;4.564;2023-03-01T05:26:52;102908.91;;;15.32;nan
44349;BME280;30068;50.986;4.564;2023-03-01T05:29:21;102897.34;;;15.83;nan
44349;BME280;30068;50.986;4.564;2023-03-01T05:31:53;102906.94;;;15.61;nan
44349;BME280;30068;50.986;4.564;2023-03-01T05:34:18;102898.50;;;15.66;nan
44349;BME280;30068;50.986;4.564;2023-03-01T05:36:44;102903.66;;;15.56;nan
44349;BME280;30068;50.986;4.564;2023-03-01T05:39:09;102907.53;;;15.52;nan
44349;BME280;30068;50.986;4.564;2023-03-01T05:41:34;102904.50;;;15.44;nan
44349;BME280;30068;50.986;4.564;2023-03-01T05:44:00;102903.25;;;15.75;nan
44349;BME280;30068;50.986;4.564;2023-03-01T05:46:25;102904.69;;;16.04;nan
44349;BME280;30068;50.986;4.564;2023-03-01T05:48:50;102912.50;;;15.71;nan
44349;BME280;30068;50.986;4.564;2023-03-01T05:51:15;102909.81;;;15.71;nan
44349;BME280;30068;50.986;4.564;2023-03-01T05:53:40;102905.09;;;15.74;nan
44349;BME280;30068;50.986;4.564;2023-03-01T05:56:06;102912.72;;;15.68;nan
44349;BME280;30068;50.986;4.564;2023-03-01T05:58:31;102909.63;;;15.61;nan
44349;BME280;30068;50.986;4.564;2023-03-01T06:00:57;102910.53;;;15.98;nan
44349;BME280;30068;50.986;4.564;2023-03-01T06:03:22;102907.69;;;16.12;nan
44349;BME280;30068;50.986;4.564;2023-03-01T06:05:47;102911.63;;;15.70;nan
44349;BME280;30068;50.986;4.564;2023-03-01T06:08:13;102902.06;;;15.66;nan
44349;BME280;30068;50.986;4.564;2023-03-01T06:10:38;102898.41;;;15.67;nan
44349;BME280;30068;50.986;4.564;2023-03-01T06:13:04;102904.94;;;15.51;nan
44349;BME280;30068;50.986;4.564;2023-03-01T06:15:29;102901.00;;;15.69;nan
44349;BME280;30068;50.986;4.564;2023-03-01T06:17:55;102896.75;;;15.90;nan
44349;BME280;30068;50.986;4.564;2023-03-01T06:20:23;102894.81;;;15.92;nan
44349;BME280;30068;50.986;4.564;2023-03-01T06:22:48;102889.63;;;16.02;nan
44349;BME280;30068;50.986;4.564;2023-03-01T06:25:15;102886.34;;;16.22;nan
44349;BME280;30068;50.986;4.564;2023-03-01T06:27:41;102888.50;;;16.30;nan
44349;BME280;30068;50.986;4.564;2023-03-01T06:30:06;102896.94;;;16.12;nan
44349;BME280;30068;50.986;4.564;2023-03-01T06:32:32;102884.88;;;16.05;nan
44349;BME280;30068;50.986;4.564;2023-03-01T06:34:58;102888.09;;;16.10;nan
44349;BME280;30068;50.986;4.564;2023-03-01T06:37:23;102883.84;;;15.95;nan
44349;BME280;30068;50.986;4.564;2023-03-01T06:39:49;102885.34;;;15.87;nan
44349;BME280;30068;50.986;4.564;2023-03-01T06:42:14;102887.94;;;15.88;nan
44349;BME280;30068;50.986;4.564;2023-03-01T06:44:39;102888.59;;;15.79;nan
44349;BME280;30068;50.986;4.564;2023-03-01T06:47:04;102888.03;;;16.36;nan
44349;BME280;30068;50.986;4.564;2023-03-01T06:49:29;102899.50;;;16.14;nan
44349;BME280;30068;50.986;4.564;2023-03-01T06:51:55;102901.44;;;16.12;nan
44349;BME280;30068;50.986;4.564;2023-03-01T06:54:20;102900.00;;;15.95;nan
44349;BME280;30068;50.986;4.564;2023-03-01T06:56:47;102905.72;;;15.78;nan
44349;BME280;30068;50.986;4.564;2023-03-01T06:59:12;102908.06;;;15.95;nan
44349;BME280;30068;50.986;4.564;2023-03-01T07:01:38;102905.56;;;16.05;nan
44349;BME280;30068;50.986;4.564;2023-03-01T07:04:03;102910.28;;;16.14;nan
44349;BME280;30068;50.986;4.564;2023-03-01T07:06:29;102910.75;;;16.08;nan
44349;BME280;30068;50.986;4.564;2023-03-01T07:08:54;102913.78;;;16.03;nan
44349;BME280;30068;50.986;4.564;2023-03-01T07:11:19;102908.63;;;15.88;nan
44349;BME280;30068;50.986;4.564;2023-03-01T07:13:44;102914.00;;;15.88;nan
44349;BME280;30068;50.986;4.564;2023-03-01T07:16:10;102918.84;;;15.70;nan
44349;BME280;30068;50.986;4.564;2023-03-01T07:18:35;102920.91;;;15.54;nan
44349;BME280;30068;50.986;4.564;2023-03-01T07:21:04;102918.13;;;15.55;nan
44349;BME280;30068;50.986;4.564;2023-03-01T07:23:29;102915.31;;;15.57;nan
44349;BME280;30068;50.986;4.564;2023-03-01T07:25:55;102910.16;;;15.54;nan
44349;BME280;30068;50.986;4.564;2023-03-01T07:28:22;102920.00;;;15.40;nan
44349;BME280;30068;50.986;4.564;2023-03-01T07:30:47;102909.56;;;15.36;nan
44349;BME280;30068;50.986;4.564;2023-03-01T07:33:12;102908.69;;;15.35;nan
44349;BME280;30068;50.986;4.564;2023-03-01T07:35:37;102902.34;;;15.36;nan
44349;BME280;30068;50.986;4.564;2023-03-01T07:38:03;102900.94;;;15.31;nan
44349;BME280;30068;50.986;4.564;2023-03-01T07:40:28;102905.78;;;15.26;nan
44349;BME280;30068;50.986;4.564;2023-03-01T07:42:57;102900.41;;;15.38;nan
44349;BME280;30068;50.986;4.564;2023-03-01T07:45:22;102907.72;;;15.36;nan
44349;BME280;30068;50.986;4.564;2023-03-01T07:47:48;102900.31;;;15.27;nan
44349;BME280;30068;50.986;4.564;2023-03-01T07:50:15;102913.63;;;15.16;nan
44349;BME280;30068;50.986;4.564;2023-03-01T07:52:40;102903.19;;;15.24;nan
44349;BME280;30068;50.986;4.564;2023-03-01T07:55:05;102904.16;;;15.36;nan
44349;BME280;30068;50.986;4.564;2023-03-01T07:57:31;102914.38;;;15.18;nan
44349;BME280;30068;50.986;4.564;2023-03-01T07:59:56;102913.84;;;15.13;nan
44349;BME280;30068;50.986;4.564;2023-03-01T08:02:21;102914.13;;;15.09;nan
44349;BME280;30068;50.986;4.564;2023-03-01T08:04:46;102907.91;;;15.08;nan
44349;BME280;30068;50.986;4.564;2023-03-01T08:07:12;102916.72;;;15.10;nan
44349;BME280;30068;50.986;4.564;2023-03-01T08:09:37;102913.28;;;15.08;nan
44349;BME280;30068;50.986;4.564;2023-03-01T08:12:03;102915.44;;;15.16;nan
44349;BME280;30068;50.986;4.564;2023-03-01T08:14:29;102917.91;;;15.06;nan
44349;BME280;30068;50.986;4.564;2023-03-01T08:16:54;102914.81;;;15.12;nan
44349;BME280;30068;50.986;4.564;2023-03-01T08:19:20;102911.16;;;15.13;nan
44349;BME280;30068;50.986;4.564;2023-03-01T08:21:45;102909.00;;;15.06;nan
44349;BME280;30068;50.986;4.564;2023-03-01T08:24:10;102913.28;;;15.08;nan
44349;BME280;30068;50.986;4.564;2023-03-01T08:26:36;102913.94;;;14.99;nan
44349;BME280;30068;50.986;4.564;2023-03-01T08:29:02;102911.53;;;14.94;nan
44349;BME280;30068;50.986;4.564;2023-03-01T08:31:34;102915.84;;;14.97;nan
44349;BME280;30068;50.986;4.564;2023-03-01T08:34:07;102916.88;;;14.82;nan
44349;BME280;30068;50.986;4.564;2023-03-01T08:36:34;102921.81;;;14.88;nan
44349;BME280;30068;50.986;4.564;2023-03-01T08:39:00;102912.63;;;14.92;nan
44349;BME280;30068;50.986;4.564;2023-03-01T08:41:26;102909.56;;;14.84;nan
44349;BME280;30068;50.986;4.564;2023-03-01T08:43:51;102913.91;;;14.86;nan
44349;BME280;30068;50.986;4.564;2023-03-01T08:46:17;102908.09;;;14.92;nan
44349;BME280;30068;50.986;4.564;2023-03-01T08:48:42;102899.94;;;14.94;nan
44349;BME280;30068;50.986;4.564;2023-03-01T08:51:09;102895.81;;;14.88;nan
44349;BME280;30068;50.986;4.564;2023-03-01T08:53:34;102892.19;;;14.62;nan
44349;BME280;30068;50.986;4.564;2023-03-01T08:56:00;102896.00;;;14.73;nan
44349;BME280;30068;50.986;4.564;2023-03-01T08:58:26;102893.41;;;14.71;nan
44349;BME280;30068;50.986;4.564;2023-03-01T09:00:51;102889.31;;;14.66;nan
44349;BME280;30068;50.986;4.564;2023-03-01T09:03:16;102888.16;;;14.82;nan
44349;BME280;30068;50.986;4.564;2023-03-01T09:05:41;102876.34;;;14.72;nan
44349;BME280;30068;50.986;4.564;2023-03-01T09:08:06;102877.72;;;14.65;nan
44349;BME280;30068;50.986;4.564;2023-03-01T09:10:36;102869.84;;;14.62;nan
44349;BME280;30068;50.986;4.564;2023-03-01T09:13:01;102866.28;;;14.61;nan
44349;BME280;30068;50.986;4.564;2023-03-01T09:15:27;102858.44;;;14.58;nan
44349;BME280;30068;50.986;4.564;2023-03-01T09:17:52;102858.09;;;14.50;nan
44349;BME280;30068;50.986;4.564;2023-03-01T09:20:17;102851.69;;;14.66;nan
44349;BME280;30068;50.986;4.564;2023-03-01T09:22:42;102846.31;;;14.66;nan
44349;BME280;30068;50.986;4.564;2023-03-01T09:25:08;102854.44;;;14.51;nan
44349;BME280;30068;50.986;4.564;2023-03-01T09:27:34;102849.06;;;14.51;nan
44349;BME280;30068;50.986;4.564;2023-03-01T09:30:00;102849.06;;;14.51;nan
44349;BME280;30068;50.986;4.564;2023-03-01T09:32:25;102836.78;;;14.47;nan
44349;BME280;30068;50.986;4.564;2023-03-01T09:34:50;102833.19;;;14.61;nan
44349;BME280;30068;50.986;4.564;2023-03-01T09:37:34;102831.88;;;14.54;nan
44349;BME280;30068;50.986;4.564;2023-03-01T09:39:59;102836.59;;;14.50;nan
44349;BME280;30068;50.986;4.564;2023-03-01T09:42:25;102836.38;;;14.53;nan
44349;BME280;30068;50.986;4.564;2023-03-01T09:44:54;102833.63;;;14.68;nan
44349;BME280;30068;50.986;4.564;2023-03-01T09:47:26;102819.38;;;14.40;nan
44349;BME280;30068;50.986;4.564;2023-03-01T09:55:09;102802.19;;;14.43;nan
44349;BME280;30068;50.986;4.564;2023-03-01T09:57:36;102803.06;;;14.43;nan
44349;BME280;30068;50.986;4.564;2023-03-01T10:02:49;102802.03;;;14.58;nan
44349;BME280;30068;50.986;4.564;2023-03-01T10:08:23;102801.81;;;14.61;nan
44349;BME280;30068;50.986;4.564;2023-03-01T10:10:49;102795.75;;;14.45;nan
44349;BME280;30068;50.986;4.564;2023-03-01T10:15:41;102796.31;;;14.50;nan
44349;BME280;30068;50.986;4.564;2023-03-01T10:18:26;102797.81;;;14.54;nan
44349;BME280;30068;50.986;4.564;2023-03-01T10:21:07;102800.28;;;14.45;nan
44349;BME280;30068;50.986;4.564;2023-03-01T10:23:37;102797.94;;;14.53;nan
44349;BME280;30068;50.986;4.564;2023-03-01T10:28:40;102784.19;;;14.70;nan
44349;BME280;30068;50.986;4.564;2023-03-01T10:31:17;102786.66;;;14.34;nan
44349;BME280;30068;50.986;4.564;2023-03-01T10:33:45;102787.47;;;14.48;nan
44349;BME280;30068;50.986;4.564;2023-03-01T10:36:10;102785.03;;;14.45;nan
44349;BME280;30068;50.986;4.564;2023-03-01T10:38:54;102788.25;;;14.50;nan
44349;BME280;30068;50.986;4.564;2023-03-01T10:41:22;102790.00;;;14.77;nan
44349;BME280;30068;50.986;4.564;2023-03-01T10:43:54;102789.03;;;14.65;nan
44349;BME280;30068;50.986;4.564;2023-03-01T10:48:58;102782.00;;;14.50;nan
44349;BME280;30068;50.986;4.564;2023-03-01T10:51:30;102773.84;;;14.51;nan
44349;BME280;30068;50.986;4.564;2023-03-01T10:53:55;102766.09;;;14.47;nan
44349;BME280;30068;50.986;4.564;2023-03-01T10:56:20;102763.47;;;14.59;nan
44349;BME280;30068;50.986;4.564;2023-03-01T11:01:25;102769.97;;;14.55;nan
44349;BME280;30068;50.986;4.564;2023-03-01T11:06:31;102764.41;;;14.46;nan
44349;BME280;30068;50.986;4.564;2023-03-01T11:08:56;102767.84;;;14.60;nan
44349;BME280;30068;50.986;4.564;2023-03-01T11:13:57;102759.75;;;14.48;nan
44349;BME280;30068;50.986;4.564;2023-03-01T11:16:27;102767.31;;;14.55;nan
44349;BME280;30068;50.986;4.564;2023-03-01T11:18:57;102747.63;;;14.68;nan
44349;BME280;30068;50.986;4.564;2023-03-01T11:21:23;102744.84;;;14.56;nan
44349;BME280;30068;50.986;4.564;2023-03-01T11:23:49;102741.41;;;14.54;nan
44349;BME280;30068;50.986;4.564;2023-03-01T11:26:14;102740.69;;;14.26;nan
44349;BME280;30068;50.986;4.564;2023-03-01T11:28:40;102735.59;;;14.21;nan
44349;BME280;30068;50.986;4.564;2023-03-01T11:31:07;102731.00;;;14.23;nan
44349;BME280;30068;50.986;4.564;2023-03-01T11:33:39;102735.00;;;13.50;nan
44349;BME280;30068;50.986;4.564;2023-03-01T11:36:23;102725.88;;;14.06;nan
44349;BME280;30068;50.986;4.564;2023-03-01T11:38:51;102733.94;;;14.06;nan
44349;BME280;30068;50.986;4.564;2023-03-01T11:41:21;102729.06;;;14.12;nan
44349;BME280;30068;50.986;4.564;2023-03-01T11:44:01;102718.22;;;14.79;nan
44349;BME280;30068;50.986;4.564;2023-03-01T11:51:24;102726.59;;;15.12;nan
44349;BME280;30068;50.986;4.564;2023-03-01T11:56:35;102733.28;;;15.43;nan
44349;BME280;30068;50.986;4.564;2023-03-01T12:01:43;102716.97;;;15.33;nan
44349;BME280;30068;50.986;4.564;2023-03-01T12:07:01;102703.94;;;15.53;nan
44349;BME280;30068;50.986;4.564;2023-03-01T12:09:54;102701.13;;;15.54;nan
44349;BME280;30068;50.986;4.564;2023-03-01T12:12:32;102701.09;;;15.67;nan
44349;BME280;30068;50.986;4.564;2023-03-01T12:25:16;102674.03;;;15.92;nan
44349;BME280;30068;50.986;4.564;2023-03-01T12:37:55;102664.06;;;16.05;nan
44349;BME280;30068;50.986;4.564;2023-03-01T12:45:32;102640.97;;;16.14;nan
44349;BME280;30068;50.986;4.564;2023-03-01T12:48:08;102643.06;;;16.22;nan
44349;BME280;30068;50.986;4.564;2023-03-01T12:50:44;102636.31;;;16.16;nan
44349;BME280;30068;50.986;4.564;2023-03-01T12:53:19;102635.97;;;16.32;nan
44349;BME280;30068;50.986;4.564;2023-03-01T12:55:46;102627.41;;;16.38;nan
44349;BME280;30068;50.986;4.564;2023-03-01T13:06:38;102608.09;;;16.55;nan
44349;BME280;30068;50.986;4.564;2023-03-01T13:12:00;102596.56;;;16.42;nan
44349;BME280;30068;50.986;4.564;2023-03-01T13:16:53;102591.53;;;16.59;nan
44349;BME280;30068;50.986;4.564;2023-03-01T13:19:23;102585.78;;;16.53;nan
44349;BME280;30068;50.986;4.564;2023-03-01T13:21:49;102589.22;;;16.55;nan
44349;BME280;30068;50.986;4.564;2023-03-01T13:29:49;102579.19;;;16.57;nan
44349;BME280;30068;50.986;4.564;2023-03-01T13:34:57;102565.84;;;16.67;nan
44349;BME280;30068;50.986;4.564;2023-03-01T13:37:23;102566.56;;;16.46;nan
44349;BME280;30068;50.986;4.564;2023-03-01T13:39:51;102577.00;;;16.62;nan
44349;BME280;30068;50.986;4.564;2023-03-01T13:42:30;102567.91;;;16.52;nan
44349;BME280;30068;50.986;4.564;2023-03-01T13:44:57;102562.38;;;16.31;nan
44349;BME280;30068;50.986;4.564;2023-03-01T13:47:22;102561.31;;;16.56;nan
44349;BME280;30068;50.986;4.564;2023-03-01T13:50:01;102549.88;;;16.52;nan
44349;BME280;30068;50.986;4.564;2023-03-01T13:55:16;102546.84;;;16.79;nan
44349;BME280;30068;50.986;4.564;2023-03-01T13:57:43;102539.25;;;16.84;nan
44349;BME280;30068;50.986;4.564;2023-03-01T14:03:27;102540.81;;;16.87;nan
44349;BME280;30068;50.986;4.564;2023-03-01T14:08:23;102536.06;;;16.90;nan
44349;BME280;30068;50.986;4.564;2023-03-01T14:18:27;102539.13;;;16.75;nan
44349;BME280;30068;50.986;4.564;2023-03-01T14:20:54;102522.56;;;16.90;nan
44349;BME280;30068;50.986;4.564;2023-03-01T14:23:21;102517.13;;;17.02;nan
44349;BME280;30068;50.986;4.564;2023-03-01T14:25:48;102509.69;;;16.94;nan
44349;BME280;30068;50.986;4.564;2023-03-01T14:30:43;102506.75;;;16.97;nan
44349;BME280;30068;50.986;4.564;2023-03-01T14:38:41;102500.59;;;16.95;nan
44349;BME280;30068;50.986;4.564;2023-03-01T14:43:32;102501.06;;;17.11;nan
44349;BME280;30068;50.986;4.564;2023-03-01T14:45:57;102495.22;;;16.95;nan
44349;BME280;30068;50.986;4.564;2023-03-01T14:48:23;102477.94;;;16.97;nan
44349;BME280;30068;50.986;4.564;2023-03-01T14:50:48;102483.19;;;16.99;nan
44349;BME280;30068;50.986;4.564;2023-03-01T14:53:19;102482.41;;;16.76;nan
44349;BME280;30068;50.986;4.564;2023-03-01T14:55:46;102481.19;;;16.58;nan
44349;BME280;30068;50.986;4.564;2023-03-01T14:58:12;102481.84;;;16.93;nan
44349;BME280;30068;50.986;4.564;2023-03-01T15:00:38;102471.72;;;17.18;nan
44349;BME280;30068;50.986;4.564;2023-03-01T15:03:14;102478.31;;;17.25;nan
44349;BME280;30068;50.986;4.564;2023-03-01T15:05:42;102469.69;;;17.10;nan
44349;BME280;30068;50.986;4.564;2023-03-01T15:08:08;102469.41;;;17.13;nan
44349;BME280;30068;50.986;4.564;2023-03-01T15:10:41;102475.66;;;17.14;nan
44349;BME280;30068;50.986;4.564;2023-03-01T15:13:21;102453.22;;;17.13;nan